sensor_id;sensor_type;location;lat;lon;timestamp;temperature;humidity
32187;DHT22;18686;53.084;8.872;2024-02-15T00:00:32;11.60;99.90
32187;DHT22;18686;53.084;8.872;2024-02-15T00:03:01;11.60;99.90
32187;DHT22;18686;53.084;8.872;2024-02-15T00:05:29;11.60;99.90
32187;DHT22;18686;53.084;8.872;2024-02-15T00:07:59;11.60;99.90
32187;DHT22;18686;53.084;8.872;2024-02-15T00:10:27;11.60;99.90
32187;DHT22;18686;53.084;8.872;2024-02-15T00:12:55;11.60;99.90
32187;DHT22;18686;53.084;8.872;2024-02-15T00:15:24;11.60;99.90
32187;DHT22;18686;53.084;8.872;2024-02-15T00:17:52;11.60;99.90
32187;DHT22;18686;53.084;8.872;2024-02-15T00:20:21;11.70;99.90
32187;DHT22;18686;53.084;8.872;2024-02-15T00:22:49;11.70;99.90
32187;DHT22;18686;53.084;8.872;2024-02-15T00:25:20;11.70;99.90
32187;DHT22;18686;53.084;8.872;2024-02-15T00:27:49;11.70;99.90
32187;DHT22;18686;53.084;8.872;2024-02-15T00:30:17;11.70;99.90
32187;DHT22;18686;53.084;8.872;2024-02-15T00:32:46;11.70;99.90
32187;DHT22;18686;53.084;8.872;2024-02-15T00:35:14;11.70;99.90
32187;DHT22;18686;53.084;8.872;2024-02-15T00:37:44;11.70;99.90
32187;DHT22;18686;53.084;8.872;2024-02-15T00:40:13;11.70;99.90
32187;DHT22;18686;53.084;8.872;2024-02-15T00:42:42;11.70;99.90
32187;DHT22;18686;53.084;8.872;2024-02-15T00:45:11;11.70;99.90
32187;DHT22;18686;53.084;8.872;2024-02-15T00:47:39;11.70;99.90
32187;DHT22;18686;53.084;8.872;2024-02-15T00:50:09;11.70;99.90
32187;DHT22;18686;53.084;8.872;2024-02-15T00:52:38;11.70;99.90
32187;DHT22;18686;53.084;8.872;2024-02-15T00:55:06;11.70;99.90
32187;DHT22;18686;53.084;8.872;2024-02-15T00:57:35;11.70;99.90
32187;DHT22;18686;53.084;8.872;2024-02-15T01:00:06;11.70;99.90
32187;DHT22;18686;53.084;8.872;2024-02-15T01:02:37;11.70;99.90
32187;DHT22;18686;53.084;8.872;2024-02-15T01:05:05;11.70;99.90
32187;DHT22;18686;53.084;8.872;2024-02-15T01:07:33;11.70;99.90
32187;DHT22;18686;53.084;8.872;2024-02-15T01:10:02;11.70;99.90
32187;DHT22;18686;53.084;8.872;2024-02-15T01:12:31;11.80;99.90
32187;DHT22;18686;53.084;8.872;2024-02-15T01:15:00;11.80;99.90
32187;DHT22;18686;53.084;8.872;2024-02-15T01:17:29;11.70;99.90
32187;DHT22;18686;53.084;8.872;2024-02-15T01:19:58;11.70;99.90
32187;DHT22;18686;53.084;8.872;2024-02-15T01:22:26;11.70;99.90
32187;DHT22;18686;53.084;8.872;2024-02-15T01:24:54;11.80;99.90
32187;DHT22;18686;53.084;8.872;2024-02-15T01:27:24;11.80;99.90
32187;DHT22;18686;53.084;8.872;2024-02-15T01:29:57;11.80;99.90
32187;DHT22;18686;53.084;8.872;2024-02-15T01:32:25;11.80;99.90
32187;DHT22;18686;53.084;8.872;2024-02-15T01:34:55;11.80;99.90
32187;DHT22;18686;53.084;8.872;2024-02-15T01:37:23;11.80;99.90
32187;DHT22;18686;53.084;8.872;2024-02-15T01:39:51;11.80;99.90
32187;DHT22;18686;53.084;8.872;2024-02-15T01:42:20;11.80;99.90
32187;DHT22;18686;53.084;8.872;2024-02-15T01:44:48;11.70;99.90
32187;DHT22;18686;53.084;8.872;2024-02-15T01:47:17;11.70;99.90
32187;DHT22;18686;53.084;8.872;2024-02-15T01:49:47;11.70;99.90
32187;DHT22;18686;53.084;8.872;2024-02-15T01:52:17;11.80;99.90
32187;DHT22;18686;53.084;8.872;2024-02-15T01:54:46;11.80;99.90
32187;DHT22;18686;53.084;8.872;2024-02-15T01:57:14;11.80;99.90
32187;DHT22;18686;53.084;8.872;2024-02-15T01:59:43;11.70;99.90
32187;DHT22;18686;53.084;8.872;2024-02-15T02:02:14;11.80;99.90
32187;DHT22;18686;53.084;8.872;2024-02-15T02:04:45;11.80;99.90
32187;DHT22;18686;53.084;8.872;2024-02-15T02:07:13;11.80;99.90
32187;DHT22;18686;53.084;8.872;2024-02-15T02:09:44;11.80;99.90
32187;DHT22;18686;53.084;8.872;2024-02-15T02:12:14;11.80;99.90
32187;DHT22;18686;53.084;8.872;2024-02-15T02:14:43;11.80;99.90
32187;DHT22;18686;53.084;8.872;2024-02-15T02:17:12;11.80;99.90
32187;DHT22;18686;53.084;8.872;2024-02-15T02:19:41;11.80;99.90
32187;DHT22;18686;53.084;8.872;2024-02-15T02:22:11;11.80;99.90
32187;DHT22;18686;53.084;8.872;2024-02-15T02:24:53;11.80;99.90
32187;DHT22;18686;53.084;8.872;2024-02-15T02:27:22;11.80;99.90
32187;DHT22;18686;53.084;8.872;2024-02-15T02:29:51;11.80;99.90
32187;DHT22;18686;53.084;8.872;2024-02-15T02:32:20;11.80;99.90
32187;DHT22;18686;53.084;8.872;2024-02-15T02:34:48;11.80;99.90
32187;DHT22;18686;53.084;8.872;2024-02-15T02:37:16;11.80;99.90
32187;DHT22;18686;53.084;8.872;2024-02-15T02:39:45;11.80;99.90
32187;DHT22;18686;53.084;8.872;2024-02-15T02:42:15;11.80;99.90
32187;DHT22;18686;53.084;8.872;2024-02-15T02:44:43;11.80;99.90
32187;DHT22;18686;53.084;8.872;2024-02-15T02:47:12;11.80;99.90
32187;DHT22;18686;53.084;8.872;2024-02-15T02:49:40;11.80;99.90
32187;DHT22;18686;53.084;8.872;2024-02-15T02:52:09;11.80;99.90
32187;DHT22;18686;53.084;8.872;2024-02-15T02:54:37;11.80;99.90
32187;DHT22;18686;53.084;8.872;2024-02-15T02:57:05;11.80;99.90
32187;DHT22;18686;53.084;8.872;2024-02-15T02:59:35;11.80;99.90
32187;DHT22;18686;53.084;8.872;2024-02-15T03:02:07;11.80;99.90
32187;DHT22;18686;53.084;8.872;2024-02-15T03:04:36;11.80;99.90
32187;DHT22;18686;53.084;8.872;2024-02-15T03:07:06;11.80;99.90
32187;DHT22;18686;53.084;8.872;2024-02-15T03:09:34;11.80;99.90
32187;DHT22;18686;53.084;8.872;2024-02-15T03:12:04;11.90;99.90
32187;DHT22;18686;53.084;8.872;2024-02-15T03:14:34;11.90;99.90
32187;DHT22;18686;53.084;8.872;2024-02-15T03:17:03;11.90;99.90
32187;DHT22;18686;53.084;8.872;2024-02-15T03:19:31;11.90;99.90
32187;DHT22;18686;53.084;8.872;2024-02-15T03:22:00;11.90;99.90
32187;DHT22;18686;53.084;8.872;2024-02-15T03:24:28;11.90;99.90
32187;DHT22;18686;53.084;8.872;2024-02-15T03:26:56;11.90;99.90
32187;DHT22;18686;53.084;8.872;2024-02-15T03:29:24;11.90;99.90
32187;DHT22;18686;53.084;8.872;2024-02-15T03:31:54;11.90;99.90
32187;DHT22;18686;53.084;8.872;2024-02-15T03:34:23;11.90;99.90
32187;DHT22;18686;53.084;8.872;2024-02-15T03:36:53;11.90;99.90
32187;DHT22;18686;53.084;8.872;2024-02-15T03:39:21;11.90;99.90
32187;DHT22;18686;53.084;8.872;2024-02-15T03:41:50;11.90;99.90
32187;DHT22;18686;53.084;8.872;2024-02-15T03:44:20;11.90;99.90
32187;DHT22;18686;53.084;8.872;2024-02-15T03:46:49;11.90;99.90
32187;DHT22;18686;53.084;8.872;2024-02-15T03:49:20;11.90;99.90
32187;DHT22;18686;53.084;8.872;2024-02-15T03:51:49;11.90;99.90
32187;DHT22;18686;53.084;8.872;2024-02-15T03:54:18;11.90;99.90
32187;DHT22;18686;53.084;8.872;2024-02-15T03:56:47;12.00;99.90
32187;DHT22;18686;53.084;8.872;2024-02-15T03:59:19;11.90;99.90
32187;DHT22;18686;53.084;8.872;2024-02-15T04:01:53;11.90;99.90
32187;DHT22;18686;53.084;8.872;2024-02-15T04:04:23;11.90;99.90
32187;DHT22;18686;53.084;8.872;2024-02-15T04:06:53;12.00;99.90
32187;DHT22;18686;53.084;8.872;2024-02-15T04:09:21;11.90;99.90
32187;DHT22;18686;53.084;8.872;2024-02-15T04:11:49;11.90;99.90
32187;DHT22;18686;53.084;8.872;2024-02-15T04:14:20;11.90;99.90
32187;DHT22;18686;53.084;8.872;2024-02-15T04:16:50;11.90;99.90
32187;DHT22;18686;53.084;8.872;2024-02-15T04:19:18;11.90;99.90
32187;DHT22;18686;53.084;8.872;2024-02-15T04:21:48;11.80;99.90
32187;DHT22;18686;53.084;8.872;2024-02-15T04:24:17;11.80;99.90
32187;DHT22;18686;53.084;8.872;2024-02-15T04:26:47;11.80;99.90
32187;DHT22;18686;53.084;8.872;2024-02-15T04:29:15;11.80;99.90
32187;DHT22;18686;53.084;8.872;2024-02-15T04:31:45;11.90;99.90
32187;DHT22;18686;53.084;8.872;2024-02-15T04:34:16;11.80;99.90
32187;DHT22;18686;53.084;8.872;2024-02-15T04:36:48;11.80;99.90
32187;DHT22;18686;53.084;8.872;2024-02-15T04:39:17;11.80;99.90
32187;DHT22;18686;53.084;8.872;2024-02-15T04:41:53;11.80;99.90
32187;DHT22;18686;53.084;8.872;2024-02-15T04:44:22;11.80;99.90
32187;DHT22;18686;53.084;8.872;2024-02-15T04:46:54;11.80;99.90
32187;DHT22;18686;53.084;8.872;2024-02-15T04:49:24;11.90;99.90
32187;DHT22;18686;53.084;8.872;2024-02-15T04:51:54;11.80;99.90
32187;DHT22;18686;53.084;8.872;2024-02-15T04:54:26;11.90;99.90
32187;DHT22;18686;53.084;8.872;2024-02-15T04:56:55;11.90;99.90
32187;DHT22;18686;53.084;8.872;2024-02-15T04:59:25;11.80;99.90
32187;DHT22;18686;53.084;8.872;2024-02-15T05:01:53;11.80;99.90
32187;DHT22;18686;53.084;8.872;2024-02-15T05:04:23;11.90;99.90
32187;DHT22;18686;53.084;8.872;2024-02-15T05:06:51;11.80;99.90
32187;DHT22;18686;53.084;8.872;2024-02-15T05:09:22;11.80;99.90
32187;DHT22;18686;53.084;8.872;2024-02-15T05:11:50;11.80;99.90
32187;DHT22;18686;53.084;8.872;2024-02-15T05:14:19;11.80;99.90
32187;DHT22;18686;53.084;8.872;2024-02-15T05:16:50;11.80;99.90
32187;DHT22;18686;53.084;8.872;2024-02-15T05:19:18;11.80;99.90
32187;DHT22;18686;53.084;8.872;2024-02-15T05:21:47;11.70;99.90
32187;DHT22;18686;53.084;8.872;2024-02-15T05:24:16;11.80;99.90
32187;DHT22;18686;53.084;8.872;2024-02-15T05:26:48;11.70;99.90
32187;DHT22;18686;53.084;8.872;2024-02-15T05:29:17;11.70;99.90
32187;DHT22;18686;53.084;8.872;2024-02-15T05:31:47;11.70;99.90
32187;DHT22;18686;53.084;8.872;2024-02-15T05:34:18;11.70;99.90
32187;DHT22;18686;53.084;8.872;2024-02-15T05:36:47;11.70;99.90
32187;DHT22;18686;53.084;8.872;2024-02-15T05:39:16;11.70;99.90
32187;DHT22;18686;53.084;8.872;2024-02-15T05:41:50;11.70;99.90
32187;DHT22;18686;53.084;8.872;2024-02-15T05:44:18;11.70;99.90
32187;DHT22;18686;53.084;8.872;2024-02-15T05:46:47;11.70;99.90
32187;DHT22;18686;53.084;8.872;2024-02-15T05:49:16;11.70;99.90
32187;DHT22;18686;53.084;8.872;2024-02-15T05:51:45;11.70;99.90
32187;DHT22;18686;53.084;8.872;2024-02-15T05:54:14;11.70;99.90
32187;DHT22;18686;53.084;8.872;2024-02-15T05:56:43;11.70;99.90
32187;DHT22;18686;53.084;8.872;2024-02-15T05:59:13;11.70;99.90
32187;DHT22;18686;53.084;8.872;2024-02-15T06:01:43;11.70;99.90
32187;DHT22;18686;53.084;8.872;2024-02-15T06:04:12;11.70;99.90
32187;DHT22;18686;53.084;8.872;2024-02-15T06:06:40;11.70;99.90
32187;DHT22;18686;53.084;8.872;2024-02-15T06:09:10;11.70;99.90
32187;DHT22;18686;53.084;8.872;2024-02-15T06:11:38;11.70;99.90
32187;DHT22;18686;53.084;8.872;2024-02-15T06:14:06;11.70;99.90
32187;DHT22;18686;53.084;8.872;2024-02-15T06:16:43;11.70;99.90
32187;DHT22;18686;53.084;8.872;2024-02-15T06:19:11;11.70;99.90
32187;DHT22;18686;53.084;8.872;2024-02-15T06:21:41;11.70;99.90
32187;DHT22;18686;53.084;8.872;2024-02-15T06:24:10;11.70;99.90
32187;DHT22;18686;53.084;8.872;2024-02-15T06:26:38;11.70;99.90
32187;DHT22;18686;53.084;8.872;2024-02-15T06:29:07;11.70;99.90
32187;DHT22;18686;53.084;8.872;2024-02-15T06:31:55;11.70;99.90
32187;DHT22;18686;53.084;8.872;2024-02-15T06:34:42;11.70;99.90
32187;DHT22;18686;53.084;8.872;2024-02-15T06:37:38;11.60;99.90
32187;DHT22;18686;53.084;8.872;2024-02-15T06:40:24;11.60;99.90
32187;DHT22;18686;53.084;8.872;2024-02-15T06:42:54;11.60;99.90
32187;DHT22;18686;53.084;8.872;2024-02-15T06:45:23;11.60;99.90
32187;DHT22;18686;53.084;8.872;2024-02-15T06:47:52;11.60;99.90
32187;DHT22;18686;53.084;8.872;2024-02-15T06:50:21;11.60;99.90
32187;DHT22;18686;53.084;8.872;2024-02-15T06:52:49;11.60;99.90
32187;DHT22;18686;53.084;8.872;2024-02-15T06:55:18;11.60;99.90
32187;DHT22;18686;53.084;8.872;2024-02-15T06:57:49;11.70;99.90
32187;DHT22;18686;53.084;8.872;2024-02-15T07:00:17;11.70;99.90
32187;DHT22;18686;53.084;8.872;2024-02-15T07:02:46;11.70;99.90
32187;DHT22;18686;53.084;8.872;2024-02-15T07:05:17;11.70;99.90
32187;DHT22;18686;53.084;8.872;2024-02-15T07:07:45;11.70;99.90
32187;DHT22;18686;53.084;8.872;2024-02-15T07:10:13;11.70;99.90
32187;DHT22;18686;53.084;8.872;2024-02-15T07:12:43;11.70;99.90
32187;DHT22;18686;53.084;8.872;2024-02-15T07:15:12;11.70;99.90
32187;DHT22;18686;53.084;8.872;2024-02-15T07:17:40;11.70;99.90
32187;DHT22;18686;53.084;8.872;2024-02-15T07:20:11;11.70;99.90
32187;DHT22;18686;53.084;8.872;2024-02-15T07:22:45;11.70;99.90
32187;DHT22;18686;53.084;8.872;2024-02-15T07:25:14;11.70;99.90
32187;DHT22;18686;53.084;8.872;2024-02-15T07:27:42;11.70;99.90
32187;DHT22;18686;53.084;8.872;2024-02-15T07:30:11;11.70;99.90
32187;DHT22;18686;53.084;8.872;2024-02-15T07:32:40;11.80;99.90
32187;DHT22;18686;53.084;8.872;2024-02-15T07:35:09;11.80;99.90
32187;DHT22;18686;53.084;8.872;2024-02-15T07:37:40;11.80;99.90
32187;DHT22;18686;53.084;8.872;2024-02-15T07:40:20;11.80;99.90
32187;DHT22;18686;53.084;8.872;2024-02-15T07:42:49;11.80;99.90
32187;DHT22;18686;53.084;8.872;2024-02-15T07:45:19;11.80;99.90
32187;DHT22;18686;53.084;8.872;2024-02-15T07:47:47;11.90;99.90
32187;DHT22;18686;53.084;8.872;2024-02-15T07:50:17;11.90;99.90
32187;DHT22;18686;53.084;8.872;2024-02-15T07:52:47;11.90;99.90
32187;DHT22;18686;53.084;8.872;2024-02-15T07:55:16;11.90;99.90
32187;DHT22;18686;53.084;8.872;2024-02-15T07:57:45;11.90;99.90
32187;DHT22;18686;53.084;8.872;2024-02-15T08:00:16;11.90;99.90
32187;DHT22;18686;53.084;8.872;2024-02-15T08:02:44;11.90;99.90
32187;DHT22;18686;53.084;8.872;2024-02-15T08:05:13;11.90;99.90
32187;DHT22;18686;53.084;8.872;2024-02-15T08:07:43;11.90;99.90
32187;DHT22;18686;53.084;8.872;2024-02-15T08:10:12;11.90;99.90
32187;DHT22;18686;53.084;8.872;2024-02-15T08:12:41;11.90;99.90
32187;DHT22;18686;53.084;8.872;2024-02-15T08:15:11;12.00;99.90
32187;DHT22;18686;53.084;8.872;2024-02-15T08:17:40;12.00;99.90
32187;DHT22;18686;53.084;8.872;2024-02-15T08:20:10;12.00;99.90
32187;DHT22;18686;53.084;8.872;2024-02-15T08:22:40;12.00;99.90
32187;DHT22;18686;53.084;8.872;2024-02-15T08:25:10;12.00;99.90
32187;DHT22;18686;53.084;8.872;2024-02-15T08:27:39;12.10;99.90
32187;DHT22;18686;53.084;8.872;2024-02-15T08:30:13;12.10;99.90
32187;DHT22;18686;53.084;8.872;2024-02-15T08:32:42;12.20;99.90
32187;DHT22;18686;53.084;8.872;2024-02-15T08:35:13;12.30;99.90
32187;DHT22;18686;53.084;8.872;2024-02-15T08:37:41;12.20;99.90
32187;DHT22;18686;53.084;8.872;2024-02-15T08:40:14;12.30;99.90
32187;DHT22;18686;53.084;8.872;2024-02-15T08:42:45;12.30;99.90
32187;DHT22;18686;53.084;8.872;2024-02-15T08:45:16;12.30;99.90
32187;DHT22;18686;53.084;8.872;2024-02-15T08:47:44;12.40;99.90
32187;DHT22;18686;53.084;8.872;2024-02-15T08:50:13;12.40;99.90
32187;DHT22;18686;53.084;8.872;2024-02-15T08:52:42;12.40;99.90
32187;DHT22;18686;53.084;8.872;2024-02-15T08:55:11;12.40;99.90
32187;DHT22;18686;53.084;8.872;2024-02-15T08:57:41;12.40;99.90
32187;DHT22;18686;53.084;8.872;2024-02-15T09:00:12;12.30;99.90
32187;DHT22;18686;53.084;8.872;2024-02-15T09:02:46;12.40;99.90
32187;DHT22;18686;53.084;8.872;2024-02-15T09:05:16;12.40;99.90
32187;DHT22;18686;53.084;8.872;2024-02-15T09:07:46;12.50;99.90
32187;DHT22;18686;53.084;8.872;2024-02-15T09:10:15;12.50;99.90
32187;DHT22;18686;53.084;8.872;2024-02-15T09:12:45;12.60;99.90
32187;DHT22;18686;53.084;8.872;2024-02-15T09:15:15;12.60;99.90
32187;DHT22;18686;53.084;8.872;2024-02-15T09:17:45;12.70;99.90
32187;DHT22;18686;53.084;8.872;2024-02-15T09:20:16;12.70;99.90
32187;DHT22;18686;53.084;8.872;2024-02-15T09:22:48;12.80;99.90
32187;DHT22;18686;53.084;8.872;2024-02-15T09:25:17;12.80;99.90
32187;DHT22;18686;53.084;8.872;2024-02-15T09:27:45;12.90;99.90
32187;DHT22;18686;53.084;8.872;2024-02-15T09:30:15;12.90;99.90
32187;DHT22;18686;53.084;8.872;2024-02-15T09:32:45;12.90;99.90
32187;DHT22;18686;53.084;8.872;2024-02-15T09:35:14;12.80;99.90
32187;DHT22;18686;53.084;8.872;2024-02-15T09:37:46;12.80;99.90
32187;DHT22;18686;53.084;8.872;2024-02-15T09:40:16;12.80;99.90
32187;DHT22;18686;53.084;8.872;2024-02-15T09:42:46;12.70;99.90
32187;DHT22;18686;53.084;8.872;2024-02-15T09:45:16;12.70;99.90
32187;DHT22;18686;53.084;8.872;2024-02-15T09:47:47;12.70;99.90
32187;DHT22;18686;53.084;8.872;2024-02-15T09:50:17;12.70;99.90
32187;DHT22;18686;53.084;8.872;2024-02-15T09:52:50;12.70;99.90
32187;DHT22;18686;53.084;8.872;2024-02-15T09:55:18;12.60;99.90
32187;DHT22;18686;53.084;8.872;2024-02-15T09:57:50;12.60;99.90
32187;DHT22;18686;53.084;8.872;2024-02-15T10:00:19;12.50;99.90
32187;DHT22;18686;53.084;8.872;2024-02-15T10:02:50;12.50;99.90
32187;DHT22;18686;53.084;8.872;2024-02-15T10:05:20;12.40;99.90
32187;DHT22;18686;53.084;8.872;2024-02-15T10:07:50;12.40;99.90
32187;DHT22;18686;53.084;8.872;2024-02-15T10:10:20;12.40;99.90
32187;DHT22;18686;53.084;8.872;2024-02-15T10:12:50;12.40;99.90
32187;DHT22;18686;53.084;8.872;2024-02-15T10:15:28;12.40;99.90
32187;DHT22;18686;53.084;8.872;2024-02-15T10:18:02;12.40;99.90
32187;DHT22;18686;53.084;8.872;2024-02-15T10:20:32;12.40;99.90
32187;DHT22;18686;53.084;8.872;2024-02-15T10:23:11;12.50;99.90
32187;DHT22;18686;53.084;8.872;2024-02-15T10:25:42;12.50;99.90
32187;DHT22;18686;53.084;8.872;2024-02-15T10:28:11;12.50;99.90
32187;DHT22;18686;53.084;8.872;2024-02-15T10:30:40;12.50;99.90
32187;DHT22;18686;53.084;8.872;2024-02-15T10:33:18;12.50;99.90
32187;DHT22;18686;53.084;8.872;2024-02-15T10:35:48;12.50;99.90
32187;DHT22;18686;53.084;8.872;2024-02-15T10:38:16;12.50;99.90
32187;DHT22;18686;53.084;8.872;2024-02-15T10:40:46;12.50;99.90
32187;DHT22;18686;53.084;8.872;2024-02-15T10:43:16;12.50;99.90
32187;DHT22;18686;53.084;8.872;2024-02-15T10:45:45;12.50;99.90
32187;DHT22;18686;53.084;8.872;2024-02-15T10:48:17;12.50;99.90
32187;DHT22;18686;53.084;8.872;2024-02-15T10:50:47;12.50;99.90
32187;DHT22;18686;53.084;8.872;2024-02-15T10:53:23;12.50;99.90
32187;DHT22;18686;53.084;8.872;2024-02-15T10:56:00;12.60;99.90
32187;DHT22;18686;53.084;8.872;2024-02-15T10:58:34;12.60;99.90
32187;DHT22;18686;53.084;8.872;2024-02-15T11:01:06;12.60;99.90
32187;DHT22;18686;53.084;8.872;2024-02-15T11:03:51;12.60;99.90
32187;DHT22;18686;53.084;8.872;2024-02-15T11:06:20;12.60;99.90
32187;DHT22;18686;53.084;8.872;2024-02-15T11:08:49;12.60;99.90
32187;DHT22;18686;53.084;8.872;2024-02-15T11:11:18;12.60;99.90
32187;DHT22;18686;53.084;8.872;2024-02-15T11:13:47;12.50;99.90
32187;DHT22;18686;53.084;8.872;2024-02-15T11:16:41;12.50;99.90
32187;DHT22;18686;53.084;8.872;2024-02-15T11:19:40;12.40;99.90
32187;DHT22;18686;53.084;8.872;2024-02-15T11:22:10;12.40;99.90
32187;DHT22;18686;53.084;8.872;2024-02-15T11:24:46;12.40;99.90
32187;DHT22;18686;53.084;8.872;2024-02-15T11:27:24;12.40;99.90
32187;DHT22;18686;53.084;8.872;2024-02-15T11:29:54;12.40;99.90
32187;DHT22;18686;53.084;8.872;2024-02-15T11:32:41;12.40;99.90
32187;DHT22;18686;53.084;8.872;2024-02-15T11:35:14;12.40;99.90
32187;DHT22;18686;53.084;8.872;2024-02-15T11:37:57;12.40;99.90
32187;DHT22;18686;53.084;8.872;2024-02-15T11:41:05;12.40;99.90
32187;DHT22;18686;53.084;8.872;2024-02-15T11:43:47;12.40;99.90
32187;DHT22;18686;53.084;8.872;2024-02-15T11:46:25;12.40;99.90
32187;DHT22;18686;53.084;8.872;2024-02-15T11:48:57;12.40;99.90
32187;DHT22;18686;53.084;8.872;2024-02-15T11:51:30;12.50;99.90
32187;DHT22;18686;53.084;8.872;2024-02-15T11:54:05;12.50;99.90
32187;DHT22;18686;53.084;8.872;2024-02-15T11:56:53;12.50;99.90
32187;DHT22;18686;53.084;8.872;2024-02-15T11:59:41;12.50;99.90
32187;DHT22;18686;53.084;8.872;2024-02-15T12:02:24;12.60;99.90
32187;DHT22;18686;53.084;8.872;2024-02-15T12:05:11;12.60;99.90
32187;DHT22;18686;53.084;8.872;2024-02-15T12:07:57;12.60;99.90
32187;DHT22;18686;53.084;8.872;2024-02-15T12:10:42;12.60;99.90
32187;DHT22;18686;53.084;8.872;2024-02-15T12:13:29;12.60;99.90
32187;DHT22;18686;53.084;8.872;2024-02-15T12:16:15;12.60;99.90
32187;DHT22;18686;53.084;8.872;2024-02-15T12:19:01;12.60;99.90
32187;DHT22;18686;53.084;8.872;2024-02-15T12:21:31;12.60;99.90
32187;DHT22;18686;53.084;8.872;2024-02-15T12:24:03;12.60;99.90
32187;DHT22;18686;53.084;8.872;2024-02-15T12:26:33;12.70;99.90
32187;DHT22;18686;53.084;8.872;2024-02-15T12:29:02;12.80;99.90
32187;DHT22;18686;53.084;8.872;2024-02-15T12:31:31;12.90;99.90
32187;DHT22;18686;53.084;8.872;2024-02-15T12:34:00;12.90;99.90
32187;DHT22;18686;53.084;8.872;2024-02-15T12:36:30;12.90;99.90
32187;DHT22;18686;53.084;8.872;2024-02-15T12:39:02;12.90;99.90
32187;DHT22;18686;53.084;8.872;2024-02-15T12:41:38;12.90;99.90
32187;DHT22;18686;53.084;8.872;2024-02-15T12:44:08;12.90;99.90
32187;DHT22;18686;53.084;8.872;2024-02-15T12:46:37;12.90;99.90
32187;DHT22;18686;53.084;8.872;2024-02-15T12:49:12;12.90;99.90
32187;DHT22;18686;53.084;8.872;2024-02-15T12:51:51;12.90;99.90
32187;DHT22;18686;53.084;8.872;2024-02-15T12:54:23;12.90;99.90
32187;DHT22;18686;53.084;8.872;2024-02-15T12:57:07;12.90;99.90
32187;DHT22;18686;53.084;8.872;2024-02-15T12:59:38;12.90;99.90
32187;DHT22;18686;53.084;8.872;2024-02-15T13:02:06;12.80;99.90
32187;DHT22;18686;53.084;8.872;2024-02-15T13:04:34;12.80;99.90
32187;DHT22;18686;53.084;8.872;2024-02-15T13:07:05;12.80;99.90
32187;DHT22;18686;53.084;8.872;2024-02-15T13:09:37;12.70;99.90
32187;DHT22;18686;53.084;8.872;2024-02-15T13:12:07;12.70;99.90
32187;DHT22;18686;53.084;8.872;2024-02-15T13:14:36;12.70;99.90
32187;DHT22;18686;53.084;8.872;2024-02-15T13:17:04;12.80;99.90
32187;DHT22;18686;53.084;8.872;2024-02-15T13:19:33;12.70;99.90
32187;DHT22;18686;53.084;8.872;2024-02-15T13:22:03;12.70;99.90
32187;DHT22;18686;53.084;8.872;2024-02-15T13:24:31;12.70;99.90
32187;DHT22;18686;53.084;8.872;2024-02-15T13:27:01;12.70;99.90
32187;DHT22;18686;53.084;8.872;2024-02-15T13:29:30;12.70;99.90
32187;DHT22;18686;53.084;8.872;2024-02-15T13:31:59;12.70;99.90
32187;DHT22;18686;53.084;8.872;2024-02-15T13:34:28;12.70;99.90
32187;DHT22;18686;53.084;8.872;2024-02-15T13:36:57;12.70;99.90
32187;DHT22;18686;53.084;8.872;2024-02-15T13:39:27;12.70;99.90
32187;DHT22;18686;53.084;8.872;2024-02-15T13:42:01;12.70;99.90
32187;DHT22;18686;53.084;8.872;2024-02-15T13:44:30;12.70;99.90
32187;DHT22;18686;53.084;8.872;2024-02-15T13:46:58;12.70;99.90
32187;DHT22;18686;53.084;8.872;2024-02-15T13:49:27;12.70;99.90
32187;DHT22;18686;53.084;8.872;2024-02-15T13:51:59;12.70;99.90
32187;DHT22;18686;53.084;8.872;2024-02-15T13:54:30;12.80;99.90
32187;DHT22;18686;53.084;8.872;2024-02-15T13:57:01;12.70;99.90
32187;DHT22;18686;53.084;8.872;2024-02-15T13:59:30;12.70;99.90
32187;DHT22;18686;53.084;8.872;2024-02-15T14:01:58;12.70;99.90
32187;DHT22;18686;53.084;8.872;2024-02-15T14:04:27;12.70;99.90
32187;DHT22;18686;53.084;8.872;2024-02-15T14:06:55;12.70;99.90
32187;DHT22;18686;53.084;8.872;2024-02-15T14:09:26;12.60;99.90
32187;DHT22;18686;53.084;8.872;2024-02-15T14:11:55;12.70;99.90
32187;DHT22;18686;53.084;8.872;2024-02-15T14:14:26;12.70;99.90
32187;DHT22;18686;53.084;8.872;2024-02-15T14:16:55;12.70;99.90
32187;DHT22;18686;53.084;8.872;2024-02-15T14:19:23;12.70;99.90
32187;DHT22;18686;53.084;8.872;2024-02-15T14:21:53;12.70;99.90
32187;DHT22;18686;53.084;8.872;2024-02-15T14:24:22;12.70;99.90
32187;DHT22;18686;53.084;8.872;2024-02-15T14:26:51;12.70;99.90
32187;DHT22;18686;53.084;8.872;2024-02-15T14:29:19;12.70;99.90
32187;DHT22;18686;53.084;8.872;2024-02-15T14:31:54;12.70;99.90
32187;DHT22;18686;53.084;8.872;2024-02-15T14:34:40;12.80;99.90
32187;DHT22;18686;53.084;8.872;2024-02-15T14:37:09;12.80;99.90
32187;DHT22;18686;53.084;8.872;2024-02-15T14:39:37;12.80;99.90
32187;DHT22;18686;53.084;8.872;2024-02-15T14:42:06;12.80;99.90
32187;DHT22;18686;53.084;8.872;2024-02-15T14:44:37;12.80;99.90
32187;DHT22;18686;53.084;8.872;2024-02-15T14:47:07;12.80;99.90
32187;DHT22;18686;53.084;8.872;2024-02-15T14:49:35;12.80;99.90
32187;DHT22;18686;53.084;8.872;2024-02-15T14:52:06;12.80;99.90
32187;DHT22;18686;53.084;8.872;2024-02-15T14:54:34;12.80;99.90
32187;DHT22;18686;53.084;8.872;2024-02-15T14:57:04;12.90;99.90
32187;DHT22;18686;53.084;8.872;2024-02-15T14:59:34;12.90;99.90
32187;DHT22;18686;53.084;8.872;2024-02-15T15:02:04;12.80;99.90
32187;DHT22;18686;53.084;8.872;2024-02-15T15:04:40;12.80;99.90
32187;DHT22;18686;53.084;8.872;2024-02-15T15:07:35;12.80;99.90
32187;DHT22;18686;53.084;8.872;2024-02-15T15:10:21;12.80;99.90
32187;DHT22;18686;53.084;8.872;2024-02-15T15:13:06;12.80;99.90
32187;DHT22;18686;53.084;8.872;2024-02-15T15:15:37;12.90;99.90
32187;DHT22;18686;53.084;8.872;2024-02-15T15:18:06;12.90;99.90
32187;DHT22;18686;53.084;8.872;2024-02-15T15:20:38;12.90;99.90
32187;DHT22;18686;53.084;8.872;2024-02-15T15:23:07;12.90;99.90
32187;DHT22;18686;53.084;8.872;2024-02-15T15:25:39;12.90;99.90
32187;DHT22;18686;53.084;8.872;2024-02-15T15:28:07;12.90;99.90
32187;DHT22;18686;53.084;8.872;2024-02-15T15:30:36;12.90;99.90
32187;DHT22;18686;53.084;8.872;2024-02-15T15:33:04;12.90;99.90
32187;DHT22;18686;53.084;8.872;2024-02-15T15:35:34;12.90;99.90
32187;DHT22;18686;53.084;8.872;2024-02-15T15:38:04;12.90;99.90
32187;DHT22;18686;53.084;8.872;2024-02-15T15:40:32;12.90;99.90
32187;DHT22;18686;53.084;8.872;2024-02-15T15:43:00;13.00;99.90
32187;DHT22;18686;53.084;8.872;2024-02-15T15:45:29;13.00;99.90
32187;DHT22;18686;53.084;8.872;2024-02-15T15:47:59;13.00;99.90
32187;DHT22;18686;53.084;8.872;2024-02-15T15:50:28;12.90;99.90
32187;DHT22;18686;53.084;8.872;2024-02-15T15:53:04;12.90;99.90